createdAt,value
2022-10-05T00:03:10.808Z,100592.94
2022-10-05T00:06:14.482Z,100574.97
2022-10-05T00:09:20.879Z,100568.13
2022-10-05T00:12:25.150Z,100590.63
2022-10-05T00:15:27.933Z,100587.28
2022-10-05T00:18:32.660Z,100595.41
2022-10-05T00:21:35.303Z,100591.22
2022-10-05T00:24:38.200Z,100583.50
2022-10-05T00:27:41.635Z,100578.50
2022-10-05T00:30:44.758Z,100578.06
2022-10-05T00:33:48.725Z,100575.16
2022-10-05T00:36:51.563Z,100580.34
2022-10-05T00:39:54.380Z,100583.44
2022-10-05T00:43:41.710Z,100580.09
2022-10-05T00:46:56.763Z,100580.50
2022-10-05T00:50:42.545Z,100566.47
2022-10-05T00:54:17.475Z,100584.88
2022-10-05T00:57:48.357Z,100581.72
2022-10-05T01:01:16.972Z,100573.31
2022-10-05T01:04:33.681Z,100577.94
2022-10-05T01:07:52.312Z,100584.59
2022-10-05T01:10:57.943Z,100564.78
2022-10-05T01:14:31.888Z,100576.09
2022-10-05T01:17:48.407Z,100573.72
2022-10-05T01:21:14.009Z,100600.63
2022-10-05T01:24:38.462Z,100592.91
2022-10-05T01:27:56.346Z,100592.91
2022-10-05T01:31:12.843Z,100592.44
2022-10-05T01:34:27.570Z,100581.78
2022-10-05T01:37:47.024Z,100598.91
2022-10-05T01:41:04.610Z,100602.28
2022-10-05T01:44:16.267Z,100594.09
2022-10-05T01:47:29.300Z,100605.97
2022-10-05T01:50:49.510Z,100599.56
2022-10-05T01:54:08.479Z,100583.88
2022-10-05T01:57:23.640Z,100599.75
2022-10-05T02:00:28.486Z,100587.78
2022-10-05T02:03:38.094Z,100597.19
2022-10-05T02:06:46.923Z,100603.25
2022-10-05T02:10:03.155Z,100606.34
2022-10-05T02:13:21.245Z,100599.44
2022-10-05T02:16:41.105Z,100600.69
2022-10-05T02:19:52.304Z,100596.44
2022-10-05T02:23:00.477Z,100603.72
2022-10-05T02:26:05.041Z,100606.66
2022-10-05T02:29:12.108Z,100594.34
2022-10-05T02:32:24.035Z,100599.97
2022-10-05T02:35:27.665Z,100588.88
2022-10-05T02:38:41.744Z,100596.59
2022-10-05T02:42:00.638Z,100604.91
2022-10-05T02:45:35.988Z,100604.72
2022-10-05T02:49:18.141Z,100589.41
2022-10-05T02:52:38.859Z,100612.12
2022-10-05T02:55:47.489Z,100603.19
2022-10-05T02:59:00.863Z,100600.66
2022-10-05T03:02:44.545Z,100602.91
2022-10-05T03:05:54.878Z,100600.41
2022-10-05T03:09:00.790Z,100596.69
2022-10-05T03:12:18.111Z,100599.72
2022-10-05T03:15:20.999Z,100597.03
2022-10-05T03:18:36.237Z,100593.66
2022-10-05T03:21:48.106Z,100593.91
2022-10-05T03:25:18.403Z,100585.56
2022-10-05T03:28:39.038Z,100579.44
2022-10-05T03:32:04.876Z,100589.59
2022-10-05T03:35:17.465Z,100579.37
2022-10-05T03:38:54.508Z,100573.34
2022-10-05T03:42:08.346Z,100576.44
2022-10-05T03:45:36.762Z,100573.91
2022-10-05T03:48:57.715Z,100572.25
2022-10-05T03:52:22.110Z,100571.63
2022-10-05T03:55:35.906Z,100585.13
2022-10-05T03:58:57.346Z,100572.75
2022-10-05T04:02:04.663Z,100584.00
2022-10-05T04:05:10.615Z,100577.56
2022-10-05T04:08:37.111Z,100578.97
2022-10-05T04:11:54.295Z,100578.97
2022-10-05T04:15:23.839Z,100574.50
2022-10-05T04:18:36.854Z,100570.03
2022-10-05T04:21:53.222Z,100604.22
2022-10-05T04:25:14.758Z,100596.66
2022-10-05T04:28:45.250Z,100598.34
2022-10-05T04:31:59.727Z,100602.06
2022-10-05T04:35:20.168Z,100601.22
2022-10-05T04:38:27.854Z,100596.66
2022-10-05T04:41:45.831Z,100586.88
2022-10-05T04:45:12.367Z,100595.91
2022-10-05T04:48:41.606Z,100602.81
2022-10-05T04:51:53.764Z,100591.59
2022-10-05T04:55:28.666Z,100590.38
2022-10-05T04:58:53.810Z,100591.22
2022-10-05T05:02:31.868Z,100595.19
2022-10-05T05:06:16.775Z,100586.72
2022-10-05T05:09:42.317Z,100590.91
2022-10-05T05:12:59.476Z,100596.78
2022-10-05T05:16:02.286Z,100598.69
2022-10-05T05:19:38.583Z,100596.87
2022-10-05T05:22:57.485Z,100593.34
2022-10-05T05:26:45.574Z,100611.38
2022-10-05T05:30:06.059Z,100614.13
2022-10-05T05:33:33.282Z,100612.59
2022-10-05T05:36:55.972Z,100609.66
2022-10-05T05:40:45.985Z,100621.69
2022-10-05T05:43:54.505Z,100621.66
2022-10-05T05:47:24.688Z,100625.38
2022-10-05T05:50:45.602Z,100629.56
2022-10-05T05:53:53.925Z,100640.56
2022-10-05T05:57:11.016Z,100637.59
2022-10-05T06:00:14.781Z,100632.44
2022-10-05T06:03:54.819Z,100633.34
2022-10-05T06:07:01.276Z,100634.63
2022-10-05T06:14:04.610Z,100627.19
2022-10-05T06:17:47.727Z,100625.16
2022-10-05T06:21:01.799Z,100617.88
2022-10-05T06:24:23.743Z,100626.78
2022-10-05T06:27:40.129Z,100628.34
2022-10-05T06:31:00.912Z,100631.97
2022-10-05T06:34:15.498Z,100640.31
2022-10-05T06:37:50.416Z,100641.47
2022-10-05T06:41:18.065Z,100642.56
2022-10-05T06:44:38.809Z,100647.97
2022-10-05T06:47:47.526Z,100666.84
2022-10-05T06:50:58.358Z,100665.66
2022-10-05T06:54:23.073Z,100665.97
2022-10-05T06:57:36.598Z,100670.84
2022-10-05T07:00:48.536Z,100673.00
2022-10-05T07:04:03.450Z,100672.16
2022-10-05T07:07:38.405Z,100674.94
2022-10-05T07:10:46.374Z,100671.66
2022-10-05T07:14:02.950Z,100678.09
2022-10-05T07:17:19.286Z,100686.25
2022-10-05T07:20:49.151Z,100692.84
2022-10-05T07:24:13.602Z,100685.50
2022-10-05T07:27:21.233Z,100694.13
2022-10-05T07:30:24.601Z,100703.19
2022-10-05T07:33:30.931Z,100708.81
2022-10-05T07:36:55.539Z,100712.78
2022-10-05T07:40:05.369Z,100715.78
2022-10-05T07:43:40.136Z,100727.25
2022-10-05T07:47:05.220Z,100726.13
2022-10-05T07:50:33.752Z,100713.06
2022-10-05T07:53:51.035Z,100700.94
2022-10-05T07:57:26.285Z,100705.91
2022-10-05T08:00:43.214Z,100701.37
2022-10-05T08:03:58.729Z,100705.47
2022-10-05T08:07:14.528Z,100710.12
2022-10-05T08:10:42.522Z,100709.22
2022-10-05T08:13:54.864Z,100703.66
2022-10-05T08:17:01.923Z,100706.03
2022-10-05T08:20:29.656Z,100709.56
2022-10-05T08:23:44.894Z,100699.03
2022-10-05T08:27:10.070Z,100709.78
2022-10-05T08:30:15.388Z,100695.72
2022-10-05T08:33:20.848Z,100704.87
2022-10-05T08:36:54.121Z,100711.53
2022-10-05T08:40:14.174Z,100715.16
2022-10-05T08:43:34.379Z,100717.34
2022-10-05T08:47:19.507Z,100721.72
2022-10-05T08:50:31.788Z,100717.44
2022-10-05T08:54:16.126Z,100728.97
2022-10-05T08:57:46.707Z,100723.12
2022-10-05T09:01:01.741Z,100708.97
2022-10-05T09:04:31.089Z,100701.63
2022-10-05T09:07:52.090Z,100691.13
2022-10-05T09:10:55.184Z,100704.66
2022-10-05T09:14:06.530Z,100703.56
2022-10-05T09:17:24.498Z,100693.06
2022-10-05T09:20:55.202Z,100704.94
2022-10-05T09:24:13.319Z,100700.53
2022-10-05T09:27:18.245Z,100690.84
2022-10-05T09:30:28.633Z,100690.44
2022-10-05T09:34:12.741Z,100681.41
2022-10-05T09:37:34.203Z,100683.56
2022-10-05T09:41:15.105Z,100686.78
2022-10-05T09:44:41.374Z,100671.44
2022-10-05T09:48:02.658Z,100681.84
2022-10-05T09:51:25.661Z,100685.13
2022-10-05T09:55:07.498Z,100674.03
2022-10-05T09:58:29.533Z,100673.75
2022-10-05T10:01:38.089Z,100681.00
2022-10-05T10:04:52.936Z,100668.16
2022-10-05T10:08:32.438Z,100668.97
2022-10-05T10:26:37.995Z,100676.31
2022-10-05T10:29:50.684Z,100671.09
2022-10-05T10:33:13.353Z,100670.09
2022-10-05T10:36:33.915Z,100670.41
2022-10-05T10:39:52.932Z,100675.94
2022-10-05T10:43:29.526Z,100666.12
2022-10-05T10:46:39.883Z,100668.28
2022-10-05T10:49:58.026Z,100664.88
2022-10-05T10:53:16.279Z,100664.19
2022-10-05T10:56:37.819Z,100654.03
2022-10-05T11:00:03.742Z,100651.25
2022-10-05T11:03:40.767Z,100652.22
2022-10-05T11:07:12.809Z,100637.81
2022-10-05T11:10:25.770Z,100656.19
2022-10-05T11:13:52.166Z,100652.34
2022-10-05T11:17:23.440Z,100637.37
2022-10-05T11:20:45.239Z,100643.13
2022-10-05T11:24:06.321Z,100638.00
2022-10-05T11:27:15.352Z,100615.66
2022-10-05T11:30:50.484Z,100630.59
2022-10-05T11:34:27.366Z,100640.41
2022-10-05T11:37:49.016Z,100624.72
2022-10-05T11:41:44.052Z,100627.28
2022-10-05T11:45:14.646Z,100620.16
2022-10-05T11:48:23.356Z,100620.66
2022-10-05T11:51:42.242Z,100618.06
2022-10-05T11:55:09.795Z,100614.78
2022-10-05T11:58:19.676Z,100617.66
2022-10-05T12:01:27.449Z,100617.69
2022-10-05T12:04:48.341Z,100617.03
2022-10-05T12:07:50.865Z,100602.66
2022-10-05T12:11:02.929Z,100600.91
2022-10-05T12:14:20.359Z,100601.81
2022-10-05T12:17:46.244Z,100599.87
2022-10-05T12:21:02.483Z,100603.53
2022-10-05T12:24:11.515Z,100600.28
2022-10-05T12:27:23.159Z,100599.03
2022-10-05T12:30:35.227Z,100594.94
2022-10-05T12:33:51.723Z,100596.94
2022-10-05T12:37:46.726Z,100588.88
2022-10-05T12:40:57.674Z,100584.88
2022-10-05T12:44:22.265Z,100591.00
2022-10-05T12:47:32.894Z,100587.88
2022-10-05T12:50:47.377Z,100577.78
2022-10-05T12:54:27.777Z,100576.56
2022-10-05T12:57:36.812Z,100588.84
2022-10-05T13:00:52.931Z,100585.06
2022-10-05T13:04:10.902Z,100579.66
2022-10-05T13:07:35.500Z,100578.63
2022-10-05T13:10:48.110Z,100578.25
2022-10-05T13:14:02.612Z,100561.88
2022-10-05T13:17:22.415Z,100567.59
2022-10-05T13:20:39.546Z,100577.88
2022-10-05T13:23:57.396Z,100573.19
2022-10-05T13:27:23.590Z,100571.94
2022-10-05T13:30:27.207Z,100576.37
2022-10-05T13:33:42.025Z,100572.56
2022-10-05T13:37:06.345Z,100580.34
2022-10-05T13:40:14.774Z,100578.56
2022-10-05T13:43:56.262Z,100578.25
2022-10-05T13:47:01.455Z,100570.31
2022-10-05T13:50:19.456Z,100560.16
2022-10-05T13:53:44.240Z,100566.16
2022-10-05T13:56:56.655Z,100561.16
2022-10-05T14:00:14.765Z,100541.50
2022-10-05T14:03:34.880Z,100538.69
2022-10-05T14:06:38.979Z,100532.31
2022-10-05T14:09:48.951Z,100538.19
2022-10-05T14:12:54.756Z,100546.81
2022-10-05T14:16:18.021Z,100542.16
2022-10-05T14:19:23.628Z,100536.09
2022-10-05T14:22:27.881Z,100541.94
2022-10-05T14:25:31.629Z,100540.59
2022-10-05T14:28:38.463Z,100537.59
2022-10-05T14:31:54.892Z,100544.22
2022-10-05T14:35:17.604Z,100532.66
2022-10-05T14:38:35.301Z,100534.63
2022-10-05T14:41:46.005Z,100526.06
2022-10-05T14:45:12.400Z,100523.59
2022-10-05T14:48:16.782Z,100536.31
2022-10-05T14:51:31.833Z,100505.69
2022-10-05T14:55:00.951Z,100517.84
2022-10-05T14:58:42.972Z,100516.75
2022-10-05T15:01:56.415Z,100511.81
2022-10-05T15:05:05.291Z,100503.25
2022-10-05T15:08:24.493Z,100512.34
2022-10-05T15:11:46.408Z,100512.38
2022-10-05T15:15:06.534Z,100506.31
2022-10-05T15:18:28.296Z,100498.31
2022-10-05T15:22:01.060Z,100509.91
2022-10-05T15:25:26.849Z,100514.03
2022-10-05T15:28:59.298Z,100521.16
2022-10-05T15:36:06.356Z,100517.31
2022-10-05T15:39:28.489Z,100524.94
2022-10-05T15:42:33.845Z,100531.19
2022-10-05T15:45:53.907Z,100512.38
2022-10-05T15:49:08.454Z,100525.25
2022-10-05T15:52:17.736Z,100527.63
2022-10-05T15:55:56.280Z,100519.28
2022-10-05T15:59:15.449Z,100516.62
2022-10-05T16:02:29.852Z,100513.72
2022-10-05T16:05:57.076Z,100506.91
2022-10-05T16:09:27.074Z,100513.38
2022-10-05T16:12:52.179Z,100510.97
2022-10-05T16:16:27.475Z,100518.09
2022-10-05T16:19:59.198Z,100522.09
2022-10-05T16:23:02.575Z,100505.37
2022-10-05T16:26:25.454Z,100499.06
2022-10-05T16:29:39.410Z,100522.59
2022-10-05T16:32:54.441Z,100525.13
2022-10-05T16:36:09.435Z,100516.75
2022-10-05T16:39:41.198Z,100525.94
2022-10-05T16:43:11.031Z,100530.66
2022-10-05T16:46:28.886Z,100532.47
2022-10-05T16:49:50.409Z,100531.31
2022-10-05T16:53:04.878Z,100538.13
2022-10-05T16:56:14.789Z,100521.75
2022-10-05T16:59:55.943Z,100544.28
2022-10-05T17:03:21.958Z,100540.53
2022-10-05T17:06:30.821Z,100540.69
2022-10-05T17:09:57.265Z,100545.25
2022-10-05T17:13:13.698Z,100543.22
2022-10-05T17:16:28.349Z,100543.88
2022-10-05T17:19:40.521Z,100549.25
2022-10-05T17:22:50.859Z,100541.19
2022-10-05T17:26:35.273Z,100547.34
2022-10-05T17:29:49.946Z,100551.44
2022-10-05T17:32:57.791Z,100552.53
2022-10-05T17:36:04.645Z,100552.78
2022-10-05T17:39:16.031Z,100555.06
2022-10-05T17:42:34.368Z,100540.00
2022-10-05T17:45:37.323Z,100558.41
2022-10-05T17:48:48.932Z,100560.81
2022-10-05T17:52:10.488Z,100562.34
2022-10-05T17:55:26.736Z,100552.78
2022-10-05T17:58:29.838Z,100577.97
2022-10-05T18:01:38.272Z,100580.81
2022-10-05T18:04:49.178Z,100583.81
2022-10-05T18:08:15.696Z,100565.25
2022-10-05T18:11:30.867Z,100589.03
2022-10-05T18:15:07.583Z,100570.97
2022-10-05T18:18:35.336Z,100578.19
2022-10-05T18:21:38.874Z,100580.84
2022-10-05T18:25:18.542Z,100579.28
2022-10-05T18:28:40.844Z,100570.62
2022-10-05T18:31:55.330Z,100582.00
2022-10-05T18:35:13.199Z,100579.75
2022-10-05T18:38:44.530Z,100585.72
2022-10-05T18:42:20.339Z,100585.00
2022-10-05T18:46:12.087Z,100590.31
2022-10-05T18:49:20.801Z,100595.19
2022-10-05T18:52:58.784Z,100586.19
2022-10-05T18:56:28.275Z,100582.47
2022-10-05T18:59:36.683Z,100589.25
2022-10-05T19:03:10.585Z,100579.37
2022-10-05T19:06:19.567Z,100575.59
2022-10-05T19:09:48.589Z,100579.37
2022-10-05T19:13:19.263Z,100582.25
2022-10-05T19:16:46.588Z,100593.03
2022-10-05T19:20:00.609Z,100598.31
2022-10-05T19:23:09.656Z,100604.34
2022-10-05T19:26:18.986Z,100603.06
2022-10-05T19:29:44.816Z,100604.50
2022-10-05T19:32:53.808Z,100611.16
2022-10-05T19:36:17.828Z,100613.03
2022-10-05T19:39:32.516Z,100608.88
2022-10-05T19:42:55.436Z,100612.44
2022-10-05T19:46:04.331Z,100613.16
2022-10-05T19:49:09.818Z,100613.41
2022-10-05T19:52:35.177Z,100619.91
2022-10-05T19:55:41.747Z,100624.91
2022-10-05T19:58:50.281Z,100621.00
2022-10-05T20:01:55.998Z,100619.91
2022-10-05T20:05:06.885Z,100627.75
2022-10-05T20:08:17.986Z,100622.06
2022-10-05T20:11:23.205Z,100628.22
2022-10-05T20:14:33.472Z,100628.72
2022-10-05T20:17:54.815Z,100630.09
2022-10-05T20:20:57.462Z,100633.78
2022-10-05T20:24:27.706Z,100630.69
2022-10-05T20:27:35.960Z,100631.50
2022-10-05T20:30:38.962Z,100633.25
2022-10-05T20:33:42.125Z,100638.19
2022-10-05T20:36:46.046Z,100624.84
2022-10-05T20:39:50.327Z,100627.09
2022-10-05T20:42:53.291Z,100622.03
2022-10-05T20:45:55.885Z,100630.34
2022-10-05T20:48:58.717Z,100628.31
2022-10-05T20:52:01.273Z,100622.50
2022-10-05T20:55:05.884Z,100625.47
2022-10-05T20:58:09.106Z,100631.59
2022-10-05T21:01:23.394Z,100621.81
2022-10-05T21:04:32.645Z,100633.41
2022-10-05T21:07:39.781Z,100631.84
2022-10-05T21:10:42.389Z,100608.75
2022-10-05T21:13:45.484Z,100625.47
2022-10-05T21:16:48.181Z,100622.00
2022-10-05T21:19:52.584Z,100623.75
2022-10-05T21:22:55.167Z,100618.75
2022-10-05T21:25:58.732Z,100620.47
2022-10-05T21:29:02.411Z,100616.31
2022-10-05T21:32:08.673Z,100597.16
2022-10-05T21:35:12.777Z,100600.34
2022-10-05T21:38:15.683Z,100607.19
2022-10-05T21:41:18.686Z,100610.84
2022-10-05T21:44:21.654Z,100613.19
2022-10-05T21:47:24.406Z,100617.41
2022-10-05T21:50:27.498Z,100604.69
2022-10-05T21:53:33.827Z,100617.31
2022-10-05T21:56:40.252Z,100611.44
2022-10-05T21:59:43.440Z,100615.03
2022-10-05T22:02:46.265Z,100618.84
2022-10-05T22:05:49.236Z,100597.97
2022-10-05T22:08:51.907Z,100616.16
2022-10-05T22:11:55.052Z,100614.50
2022-10-05T22:14:58.088Z,100624.63
2022-10-05T22:18:01.002Z,100618.78
2022-10-05T22:21:06.310Z,100622.16
2022-10-05T22:24:11.653Z,100621.38
2022-10-05T22:27:14.640Z,100615.31
2022-10-05T22:30:19.998Z,100618.88
2022-10-05T22:33:23.103Z,100620.37
2022-10-05T22:36:26.863Z,100620.59
2022-10-05T22:39:29.441Z,100615.81
2022-10-05T22:42:32.506Z,100614.53
2022-10-05T22:45:35.708Z,100619.97
2022-10-05T22:48:39.299Z,100613.94
2022-10-05T22:51:42.052Z,100614.53
2022-10-05T22:54:44.933Z,100609.91
2022-10-05T22:57:49.201Z,100612.47
2022-10-05T23:00:58.378Z,100612.81
2022-10-05T23:04:01.740Z,100598.66
2022-10-05T23:07:05.101Z,100608.44
2022-10-05T23:10:09.726Z,100598.03
2022-10-05T23:13:12.650Z,100605.09
2022-10-05T23:16:19.015Z,100615.75
2022-10-05T23:19:23.186Z,100615.75
2022-10-05T23:22:25.891Z,100614.75
2022-10-05T23:25:28.781Z,100603.75
2022-10-05T23:28:31.898Z,100623.63
2022-10-05T23:31:36.941Z,100619.69
2022-10-05T23:34:39.668Z,100619.72
2022-10-05T23:37:44.506Z,100623.09
2022-10-05T23:40:47.635Z,100620.66
2022-10-05T23:43:50.573Z,100625.09
2022-10-05T23:46:53.181Z,100621.56
2022-10-05T23:49:56.040Z,100626.19
2022-10-05T23:52:58.782Z,100630.00
2022-10-05T23:56:01.781Z,100604.34
2022-10-05T23:59:04.389Z,100614.38
